sensor_id;sensor_type;location;lat;lon;timestamp;temperature;humidity
28010;DHT22;15334;49.494;8.410;2024-02-26T05:52:33;6.40;99.90
28010;DHT22;15334;49.494;8.410;2024-02-26T05:55:01;6.60;99.90
28010;DHT22;15334;49.494;8.410;2024-02-26T05:57:29;6.50;99.90
28010;DHT22;15334;49.494;8.410;2024-02-26T05:59:57;6.60;99.90
28010;DHT22;15334;49.494;8.410;2024-02-26T16:41:34;11.70;99.90
28010;DHT22;15334;49.494;8.410;2024-02-26T16:44:02;11.60;99.90
28010;DHT22;15334;49.494;8.410;2024-02-26T16:48:59;11.40;99.90
28010;DHT22;15334;49.494;8.410;2024-02-26T16:51:32;11.60;99.90
28010;DHT22;15334;49.494;8.410;2024-02-26T16:56:30;11.70;99.90
28010;DHT22;15334;49.494;8.410;2024-02-26T16:58:59;11.70;99.90
28010;DHT22;15334;49.494;8.410;2024-02-26T17:01:27;11.50;99.90
28010;DHT22;15334;49.494;8.410;2024-02-26T17:06:23;11.80;99.90
28010;DHT22;15334;49.494;8.410;2024-02-26T17:08:51;11.40;99.90
28010;DHT22;15334;49.494;8.410;2024-02-26T17:11:21;11.40;99.90
28010;DHT22;15334;49.494;8.410;2024-02-26T17:13:50;11.30;99.90
28010;DHT22;15334;49.494;8.410;2024-02-26T17:16:19;11.30;99.90
28010;DHT22;15334;49.494;8.410;2024-02-26T17:18:47;11.10;99.90
28010;DHT22;15334;49.494;8.410;2024-02-26T17:21:16;11.00;99.90
28010;DHT22;15334;49.494;8.410;2024-02-26T17:26:16;11.40;99.90
28010;DHT22;15334;49.494;8.410;2024-02-26T17:28:45;11.40;99.90
28010;DHT22;15334;49.494;8.410;2024-02-26T17:31:13;11.50;99.90
28010;DHT22;15334;49.494;8.410;2024-02-26T17:33:44;11.50;99.90
28010;DHT22;15334;49.494;8.410;2024-02-26T17:36:12;11.50;99.90
28010;DHT22;15334;49.494;8.410;2024-02-26T17:41:09;11.40;99.90
28010;DHT22;15334;49.494;8.410;2024-02-26T17:43:39;11.40;99.90
28010;DHT22;15334;49.494;8.410;2024-02-26T17:46:08;11.40;99.90
28010;DHT22;15334;49.494;8.410;2024-02-26T17:48:36;11.40;99.90
28010;DHT22;15334;49.494;8.410;2024-02-26T17:51:05;11.30;99.90
28010;DHT22;15334;49.494;8.410;2024-02-26T17:53:33;11.30;99.90
28010;DHT22;15334;49.494;8.410;2024-02-26T17:56:01;11.30;99.90
28010;DHT22;15334;49.494;8.410;2024-02-26T17:58:33;11.30;99.90
28010;DHT22;15334;49.494;8.410;2024-02-26T18:01:03;11.30;99.90
28010;DHT22;15334;49.494;8.410;2024-02-26T18:03:31;11.30;99.90
28010;DHT22;15334;49.494;8.410;2024-02-26T18:06:00;11.20;99.90
28010;DHT22;15334;49.494;8.410;2024-02-26T18:08:32;11.20;99.90
28010;DHT22;15334;49.494;8.410;2024-02-26T18:11:00;11.10;99.90
28010;DHT22;15334;49.494;8.410;2024-02-26T18:13:29;11.10;99.90
28010;DHT22;15334;49.494;8.410;2024-02-26T18:15:56;11.10;99.90
28010;DHT22;15334;49.494;8.410;2024-02-26T18:18:24;11.20;99.90
28010;DHT22;15334;49.494;8.410;2024-02-26T18:23:23;11.20;99.90
28010;DHT22;15334;49.494;8.410;2024-02-26T18:25:52;11.10;99.90
28010;DHT22;15334;49.494;8.410;2024-02-26T18:28:20;11.50;99.90
28010;DHT22;15334;49.494;8.410;2024-02-26T18:33:15;11.30;99.90
28010;DHT22;15334;49.494;8.410;2024-02-26T18:38:13;11.20;99.90
28010;DHT22;15334;49.494;8.410;2024-02-26T18:40:41;10.90;99.90
28010;DHT22;15334;49.494;8.410;2024-02-26T18:43:10;11.20;99.90
28010;DHT22;15334;49.494;8.410;2024-02-26T18:45:38;11.70;99.90
28010;DHT22;15334;49.494;8.410;2024-02-26T18:48:08;11.40;99.90
28010;DHT22;15334;49.494;8.410;2024-02-26T18:50:36;11.20;99.90
28010;DHT22;15334;49.494;8.410;2024-02-26T18:53:06;11.30;99.90
28010;DHT22;15334;49.494;8.410;2024-02-26T18:55:34;11.30;99.90
28010;DHT22;15334;49.494;8.410;2024-02-26T18:58:02;11.30;99.90
28010;DHT22;15334;49.494;8.410;2024-02-26T19:00:32;11.20;99.90
28010;DHT22;15334;49.494;8.410;2024-02-26T19:03:00;11.20;99.90
28010;DHT22;15334;49.494;8.410;2024-02-26T19:05:30;11.30;99.90
28010;DHT22;15334;49.494;8.410;2024-02-26T19:07:59;11.20;99.90
28010;DHT22;15334;49.494;8.410;2024-02-26T19:10:28;11.30;99.90
28010;DHT22;15334;49.494;8.410;2024-02-26T19:12:56;11.20;99.90
28010;DHT22;15334;49.494;8.410;2024-02-26T19:15:24;11.20;99.90
28010;DHT22;15334;49.494;8.410;2024-02-26T19:17:55;11.10;99.90
28010;DHT22;15334;49.494;8.410;2024-02-26T19:20:24;11.10;99.90
28010;DHT22;15334;49.494;8.410;2024-02-26T19:22:52;11.00;99.90
28010;DHT22;15334;49.494;8.410;2024-02-26T19:25:20;11.00;99.90
28010;DHT22;15334;49.494;8.410;2024-02-26T19:27:48;11.00;99.90
28010;DHT22;15334;49.494;8.410;2024-02-26T19:30:16;10.90;99.90
28010;DHT22;15334;49.494;8.410;2024-02-26T19:32:44;11.00;99.90
28010;DHT22;15334;49.494;8.410;2024-02-26T19:35:13;11.00;99.90
28010;DHT22;15334;49.494;8.410;2024-02-26T19:40:10;11.00;99.90
28010;DHT22;15334;49.494;8.410;2024-02-26T19:45:08;10.70;99.90
28010;DHT22;15334;49.494;8.410;2024-02-26T19:47:38;10.60;99.90
28010;DHT22;15334;49.494;8.410;2024-02-26T19:50:08;10.60;99.90
28010;DHT22;15334;49.494;8.410;2024-02-26T19:52:37;10.60;99.90
28010;DHT22;15334;49.494;8.410;2024-02-26T19:55:05;10.60;99.90
28010;DHT22;15334;49.494;8.410;2024-02-26T20:00:03;10.70;99.90
28010;DHT22;15334;49.494;8.410;2024-02-26T20:02:32;10.80;99.90
28010;DHT22;15334;49.494;8.410;2024-02-26T20:05:01;10.80;99.90
28010;DHT22;15334;49.494;8.410;2024-02-26T20:07:30;10.80;99.90
28010;DHT22;15334;49.494;8.410;2024-02-26T20:09:59;10.80;99.90
28010;DHT22;15334;49.494;8.410;2024-02-26T20:12:27;10.40;99.90
28010;DHT22;15334;49.494;8.410;2024-02-26T20:14:55;10.70;99.90
28010;DHT22;15334;49.494;8.410;2024-02-26T20:17:23;10.70;99.90
28010;DHT22;15334;49.494;8.410;2024-02-26T20:19:51;10.70;99.90
28010;DHT22;15334;49.494;8.410;2024-02-26T20:22:24;10.60;99.90
28010;DHT22;15334;49.494;8.410;2024-02-26T20:24:52;10.60;99.90
28010;DHT22;15334;49.494;8.410;2024-02-26T20:27:21;10.70;99.90
28010;DHT22;15334;49.494;8.410;2024-02-26T20:29:49;10.60;99.90
28010;DHT22;15334;49.494;8.410;2024-02-26T20:32:19;10.50;99.90
28010;DHT22;15334;49.494;8.410;2024-02-26T20:34:48;10.40;99.90
28010;DHT22;15334;49.494;8.410;2024-02-26T20:37:16;10.30;99.90
28010;DHT22;15334;49.494;8.410;2024-02-26T20:42:12;10.10;99.90
28010;DHT22;15334;49.494;8.410;2024-02-26T20:44:41;10.10;99.90
28010;DHT22;15334;49.494;8.410;2024-02-26T20:47:09;10.10;99.90
28010;DHT22;15334;49.494;8.410;2024-02-26T20:49:37;10.10;99.90
28010;DHT22;15334;49.494;8.410;2024-02-26T20:52:05;10.00;99.90
28010;DHT22;15334;49.494;8.410;2024-02-26T20:54:33;10.10;99.90
28010;DHT22;15334;49.494;8.410;2024-02-26T20:57:01;10.10;99.90
28010;DHT22;15334;49.494;8.410;2024-02-26T20:59:30;10.10;99.90
28010;DHT22;15334;49.494;8.410;2024-02-26T21:02:00;10.00;99.90
28010;DHT22;15334;49.494;8.410;2024-02-26T21:04:28;10.10;99.90
28010;DHT22;15334;49.494;8.410;2024-02-26T21:06:57;10.00;99.90
28010;DHT22;15334;49.494;8.410;2024-02-26T21:09:25;10.00;99.90
28010;DHT22;15334;49.494;8.410;2024-02-26T21:11:53;10.00;99.90
28010;DHT22;15334;49.494;8.410;2024-02-26T21:14:22;10.10;99.90
28010;DHT22;15334;49.494;8.410;2024-02-26T21:16:50;10.10;99.90
28010;DHT22;15334;49.494;8.410;2024-02-26T21:19:19;10.00;99.90
28010;DHT22;15334;49.494;8.410;2024-02-26T21:21:47;10.00;99.90
28010;DHT22;15334;49.494;8.410;2024-02-26T21:24:15;10.00;99.90
28010;DHT22;15334;49.494;8.410;2024-02-26T21:26:44;10.00;99.90
28010;DHT22;15334;49.494;8.410;2024-02-26T21:29:12;10.00;99.90
28010;DHT22;15334;49.494;8.410;2024-02-26T21:31:40;9.90;99.90
28010;DHT22;15334;49.494;8.410;2024-02-26T21:34:07;10.00;99.90
28010;DHT22;15334;49.494;8.410;2024-02-26T21:36:37;10.00;99.90
28010;DHT22;15334;49.494;8.410;2024-02-26T21:39:05;10.00;99.90
